Governador José Richa Airport
SBLO : rendu visible

Aérodrome :











RETROUVEZ-NOUS SUR...

 
LOGIN :

S'inscrire | Disclaimer

   EN    FR    IT 

 









Légende :    VFR   VFR Marginal   IFR   IFR Intensif   IFR Très Intensif
Visi : 
Plafond : 
>= 8 km
>= 3000ft
5 à 8 km
1000 à 3000 ft
1500m à 5 km
500 à 1000 ft
800 à 1500m
200 à 500 ft
< 800m
< 200 ft
Symboles :   Orages  Brouillard  Fortes neiges  Fortes précipitations  Vent > 20 kt






- Altitude de l'aérodrome : 1867 ft
- Code IATA : LDB


SBLO - Governador José Richa

DERNIER METAR :
  • 241900Z 18002KT 9999 FEW045 31/13 Q1018

METARs EXPIRÉS :
  • 241800Z 01003KT 9999 SCT045 31/14 Q1018
  • 241700Z 26003KT 9999 SCT045 30/13 Q1019

TAF TAF SBLO
Valide du 24 à 18h jusqu'au 25 à 06h UTC


241616Z 2418/2506 11004KT CAVOK TX29/2418Z TN17/2505Z
PROB30 2418/2421 22005KT 9999 FEW040
BECMG 2423/2501 13008KT RMK PGO
FIR SBCW / Amérique du Sud



MET'MAP, la Météo Aéronautique d'un coup d'oeil ! - Copyright ORBIFLY Décembre 2007 - Disclaimer

ORBIFLY MET'MAP TEAM :

Programmation & Développement : Alexandra Zaïnal
Sur une idée originale de : Baudouin d'Aumeries
Assistance à la programmation : Marc-Olivier Méhu
Soutien technique & logistique : Manuel Goepfert

Contact : metmap@orbifly.com




SOURCES & CREDITS :

   NOAA       Earth
Advisory